createdAt,value
2016-05-17T11:15:44.868Z,210
2016-05-17T11:16:47.355Z,165
2016-05-17T11:17:47.686Z,120
2016-05-17T11:18:47.314Z,115
2016-05-17T11:19:46.880Z,125
2016-05-17T11:20:47.179Z,135
2016-05-17T11:21:47.009Z,155
2016-05-17T11:22:46.965Z,160
2016-05-17T11:23:46.641Z,155
2016-05-17T11:24:47.096Z,170
2016-05-17T11:25:46.599Z,210
2016-05-17T11:26:47.039Z,255
2016-05-17T11:27:47.026Z,285
2016-05-17T11:28:46.997Z,300
2016-05-17T11:29:46.984Z,295
2016-05-17T11:30:46.815Z,280
2016-05-17T11:31:46.787Z,270
2016-05-17T11:32:46.758Z,250
2016-05-17T11:33:46.901Z,255
2016-05-17T11:34:46.873Z,290
2016-05-17T11:35:46.704Z,330
2016-05-17T11:36:47.925Z,355
2016-05-17T11:37:47.161Z,360
2016-05-17T11:38:46.806Z,380
2016-05-17T11:39:46.761Z,400
2016-05-17T11:40:46.779Z,415
2016-05-17T11:41:46.595Z,390
2016-05-17T11:42:46.722Z,360
2016-05-17T11:43:46.709Z,345
2016-05-17T11:44:46.555Z,350
2016-05-17T11:45:46.667Z,365
2016-05-17T11:46:46.670Z,360
2016-05-17T11:47:46.658Z,340
2016-05-17T11:48:46.300Z,315
2016-05-17T11:49:46.600Z,290
2016-05-17T11:50:46.416Z,280
2016-05-17T11:51:46.918Z,270
2016-05-17T11:52:46.546Z,250
2016-05-17T11:53:46.533Z,245
2016-05-17T11:54:46.363Z,240
2016-05-17T11:55:46.366Z,255
2016-05-17T11:56:46.479Z,255
2016-05-17T11:57:46.152Z,255
2016-05-17T11:58:46.281Z,260
2016-05-17T11:59:46.300Z,240
2016-05-17T12:00:46.239Z,250
2016-05-17T12:01:46.382Z,240
2016-05-17T12:02:46.354Z,235
2016-05-17T12:03:46.044Z,255
2016-05-17T12:04:46.328Z,255
2016-05-17T12:05:46.332Z,255
2016-05-17T12:06:46.615Z,270
2016-05-17T12:07:46.289Z,280
2016-05-17T12:08:45.964Z,280
2016-05-17T12:09:46.076Z,285
2016-05-17T12:10:46.234Z,290
2016-05-17T12:11:46.050Z,290
2016-05-17T12:12:46.037Z,275
2016-05-17T12:13:46.181Z,265
2016-05-17T12:14:46.152Z,260
2016-05-17T12:15:46.139Z,260
2016-05-17T12:16:46.126Z,255
2016-05-17T12:17:46.097Z,265
2016-05-17T12:18:46.100Z,275
2016-05-17T12:19:45.916Z,280
2016-05-17T12:20:46.075Z,295
2016-05-17T12:21:45.983Z,305
2016-05-17T12:22:46.017Z,325
2016-05-17T12:23:45.863Z,330
2016-05-17T12:24:45.866Z,340
2016-05-17T12:25:45.807Z,340
2016-05-17T12:26:45.950Z,320
2016-05-17T12:27:45.780Z,310
2016-05-17T12:28:45.752Z,295
2016-05-17T12:29:45.911Z,295
2016-05-17T12:30:45.867Z,295
2016-05-17T12:31:45.557Z,325
2016-05-17T12:32:45.685Z,345
2016-05-17T12:33:45.829Z,365
2016-05-17T12:34:45.659Z,360
2016-05-17T12:35:45.630Z,355
2016-05-17T12:36:45.898Z,330
2016-05-17T12:37:45.760Z,320
2016-05-17T12:38:45.576Z,325
2016-05-17T12:39:45.563Z,385
2016-05-17T12:40:45.565Z,440
2016-05-17T12:41:45.553Z,440
2016-05-17T12:42:45.665Z,460
2016-05-17T12:43:45.340Z,475
2016-05-17T12:44:45.654Z,475
2016-05-17T12:45:45.642Z,470
2016-05-17T12:46:45.614Z,465
2016-05-17T12:47:45.584Z,425
2016-05-17T12:48:45.571Z,435
2016-05-17T12:49:45.558Z,455
2016-05-17T12:50:45.545Z,455
2016-05-17T12:51:45.752Z,415
2016-05-17T12:52:46.144Z,390
2016-05-17T12:53:45.491Z,365
2016-05-17T12:54:45.322Z,360
2016-05-17T12:55:45.481Z,355
2016-05-17T12:56:45.297Z,360
2016-05-17T12:57:45.283Z,410
2016-05-17T12:58:45.410Z,430
2016-05-17T12:59:45.413Z,435
2016-05-17T13:00:45.401Z,440
2016-05-17T13:01:45.216Z,425
2016-05-17T13:02:45.360Z,405
2016-05-17T13:03:45.346Z,380
2016-05-17T13:04:45.333Z,355
2016-05-17T13:05:45.321Z,340
2016-05-17T13:06:45.292Z,290
2016-05-17T13:07:45.154Z,290
2016-05-17T13:08:45.250Z,335
2016-05-17T13:09:45.253Z,325
2016-05-17T13:10:45.240Z,300
2016-05-17T13:11:45.212Z,275
2016-05-17T13:12:45.214Z,240
2016-05-17T13:13:45.186Z,225
2016-05-17T13:14:45.032Z,215
2016-05-17T13:15:45.020Z,190
2016-05-17T13:16:44.991Z,160
2016-05-17T13:17:44.978Z,140
2016-05-17T13:18:45.105Z,140
2016-05-17T13:19:45.123Z,150
2016-05-17T13:20:45.095Z,175
2016-05-17T13:21:45.067Z,195
2016-05-17T13:22:44.616Z,195
2016-05-17T13:23:44.884Z,180
2016-05-17T13:24:45.011Z,165
2016-05-17T13:25:44.859Z,140
2016-05-17T13:26:45.002Z,130
2016-05-17T13:27:44.833Z,120
2016-05-17T13:28:44.960Z,120
2016-05-17T13:29:44.775Z,115
2016-05-17T13:30:44.934Z,110
2016-05-17T13:31:44.780Z,100
2016-05-17T13:32:44.893Z,90
2016-05-17T13:33:44.568Z,85
2016-05-17T13:34:44.867Z,80
2016-05-17T13:35:44.870Z,80
2016-05-17T13:36:44.841Z,90
2016-05-17T13:37:44.751Z,115
2016-05-17T13:38:44.471Z,130
2016-05-17T13:39:44.787Z,140
2016-05-17T13:40:44.759Z,140
2016-05-17T13:41:44.590Z,135
2016-05-17T13:42:44.732Z,130
2016-05-17T13:43:44.704Z,130
2016-05-17T13:44:44.535Z,140
2016-05-17T13:45:44.225Z,145
2016-05-17T13:46:44.493Z,150
2016-05-17T13:47:44.637Z,150
2016-05-17T13:48:44.624Z,160
2016-05-17T13:49:44.611Z,175
2016-05-17T13:50:44.582Z,185
2016-05-17T13:51:44.428Z,185
2016-05-17T13:52:45.056Z,195
2016-05-17T13:53:44.215Z,200
2016-05-17T13:54:44.359Z,225
2016-05-17T13:55:44.345Z,245
2016-05-17T13:56:44.161Z,255
2016-05-17T13:57:44.475Z,275
2016-05-17T13:58:44.136Z,290
2016-05-17T13:59:44.278Z,305
2016-05-17T14:00:44.421Z,325
2016-05-17T14:01:44.393Z,335
2016-05-17T14:02:44.224Z,335
2016-05-17T14:03:44.211Z,340
2016-05-17T14:04:44.354Z,355
2016-05-17T14:05:44.310Z,350
2016-05-17T14:06:44.329Z,340
2016-05-17T14:07:44.659Z,330
2016-05-17T14:08:44.271Z,325
2016-05-17T14:09:44.274Z,325
2016-05-17T14:10:44.073Z,300
2016-05-17T14:11:44.217Z,270
2016-05-17T14:12:44.219Z,255
2016-05-17T14:13:44.190Z,245
2016-05-17T14:14:44.178Z,245
2016-05-17T14:15:43.883Z,250
2016-05-17T14:16:44.051Z,245
2016-05-17T14:17:44.235Z,235
2016-05-17T14:18:44.107Z,230
2016-05-17T14:19:44.136Z,235
2016-05-17T14:20:44.128Z,230
2016-05-17T14:21:44.287Z,235
2016-05-17T14:22:44.321Z,240
2016-05-17T14:23:44.292Z,235
2016-05-17T14:24:44.121Z,225
2016-05-17T14:25:44.132Z,225
2016-05-17T14:26:44.109Z,230
2016-05-17T14:27:44.101Z,225
2016-05-17T14:28:44.219Z,215
2016-05-17T14:29:44.227Z,230
2016-05-17T14:30:44.045Z,230
2016-05-17T14:31:44.050Z,235
2016-05-17T14:32:44.195Z,250
2016-05-17T14:33:44.027Z,275
2016-05-17T14:34:44.001Z,290
2016-05-17T14:35:44.130Z,285
2016-05-17T14:36:44.132Z,280
2016-05-17T14:37:43.855Z,285
2016-05-17T14:38:44.092Z,285
2016-05-17T14:39:44.064Z,255
2016-05-17T14:40:43.910Z,205
2016-05-17T14:41:43.882Z,160
2016-05-17T14:42:43.870Z,130
2016-05-17T14:43:43.999Z,110
2016-05-17T14:44:44.001Z,90
2016-05-17T14:45:43.972Z,85
2016-05-17T14:46:43.803Z,90
2016-05-17T14:47:43.947Z,95
2016-05-17T14:48:43.918Z,100
2016-05-17T14:49:43.593Z,105
2016-05-17T14:50:43.580Z,115
2016-05-17T14:51:43.708Z,120
2016-05-17T14:52:43.554Z,125
2016-05-17T14:53:43.837Z,130
2016-05-17T14:54:43.840Z,145
2016-05-17T14:55:43.796Z,160
2016-05-17T14:56:43.784Z,175
2016-05-17T14:57:43.754Z,195
2016-05-17T14:58:43.820Z,210
2016-05-17T14:59:43.588Z,230
2016-05-17T15:00:43.559Z,245
2016-05-17T15:01:43.687Z,255
2016-05-17T15:02:43.690Z,260
2016-05-17T15:03:43.365Z,270
2016-05-17T15:04:43.648Z,280
2016-05-17T15:05:43.620Z,290
2016-05-17T15:06:43.451Z,290
2016-05-17T15:07:43.625Z,280
2016-05-17T15:08:43.581Z,275
2016-05-17T15:09:43.553Z,275
2016-05-17T15:10:43.540Z,275
2016-05-17T15:11:43.511Z,275
2016-05-17T15:12:43.327Z,275
2016-05-17T15:13:43.485Z,270
2016-05-17T15:14:43.473Z,270
2016-05-17T15:15:43.444Z,270
2016-05-17T15:16:43.430Z,275
2016-05-17T15:17:43.261Z,275
2016-05-17T15:18:43.405Z,275
2016-05-17T15:19:43.376Z,270
2016-05-17T15:20:43.207Z,270
2016-05-17T15:21:43.194Z,270
2016-05-17T15:22:43.024Z,270
2016-05-17T15:23:43.309Z,265
2016-05-17T15:24:43.296Z,255
2016-05-17T15:25:43.298Z,240
2016-05-17T15:26:43.270Z,240
2016-05-17T15:27:43.085Z,245
2016-05-17T15:28:43.229Z,240
2016-05-17T15:29:43.059Z,240
2016-05-17T15:30:43.203Z,245
2016-05-17T15:31:42.924Z,245
2016-05-17T15:32:43.006Z,250
2016-05-17T15:33:43.148Z,255
2016-05-17T15:34:42.979Z,255
2016-05-17T15:35:43.139Z,250
2016-05-17T15:36:43.095Z,245
2016-05-17T15:37:43.362Z,245
2016-05-17T15:38:42.912Z,235
2016-05-17T15:39:42.900Z,225
2016-05-17T15:40:42.730Z,225
2016-05-17T15:41:43.013Z,225
2016-05-17T15:42:43.001Z,230
2016-05-17T15:43:42.832Z,240
2016-05-17T15:44:42.959Z,230
2016-05-17T15:45:42.649Z,225
2016-05-17T15:46:42.933Z,225
2016-05-17T15:47:42.764Z,220
2016-05-17T15:48:42.736Z,215
2016-05-17T15:49:42.739Z,220
2016-05-17T15:50:42.694Z,220
2016-05-17T15:51:42.852Z,220
2016-05-17T15:52:42.668Z,215
2016-05-17T15:53:42.796Z,215
2016-05-17T15:54:42.673Z,205
2016-05-17T15:55:42.785Z,200
2016-05-17T15:56:42.757Z,195
2016-05-17T15:57:42.588Z,195
2016-05-17T15:58:42.731Z,190
2016-05-17T15:59:42.406Z,200
2016-05-17T16:00:42.549Z,200
2016-05-17T16:01:42.661Z,200
2016-05-17T16:02:42.648Z,195
2016-05-17T16:03:42.651Z,195
2016-05-17T16:04:42.653Z,190
2016-05-17T16:05:42.453Z,185
2016-05-17T16:06:42.440Z,185
2016-05-17T16:07:42.787Z,175
2016-05-17T16:08:42.571Z,170
2016-05-17T16:09:42.401Z,170
2016-05-17T16:10:42.529Z,170
2016-05-17T16:11:42.344Z,170
2016-05-17T16:12:42.331Z,165
2016-05-17T16:13:42.178Z,165
2016-05-17T16:14:42.150Z,170
2016-05-17T16:15:42.433Z,175
2016-05-17T16:16:42.280Z,180
2016-05-17T16:17:42.408Z,185
2016-05-17T16:18:42.395Z,185
2016-05-17T16:19:42.225Z,185
2016-05-17T16:20:43.994Z,185
2016-05-17T16:21:42.184Z,190
2016-05-17T16:22:42.655Z,190
2016-05-17T16:23:42.346Z,195
2016-05-17T16:24:42.286Z,190
2016-05-17T16:25:42.133Z,195
2016-05-17T16:26:42.103Z,195
2016-05-17T16:27:42.247Z,190
2016-05-17T16:28:42.062Z,185
2016-05-17T16:29:42.221Z,180
2016-05-17T16:30:42.177Z,175
2016-05-17T16:31:42.165Z,180
2016-05-17T16:32:42.150Z,180
2016-05-17T16:33:42.137Z,180
2016-05-17T16:34:42.110Z,175
2016-05-17T16:35:42.096Z,175
2016-05-17T16:36:42.084Z,170
2016-05-17T16:37:41.773Z,165
2016-05-17T16:38:42.042Z,155
2016-05-17T16:39:42.026Z,150
2016-05-17T16:40:41.873Z,150
2016-05-17T16:41:41.984Z,145
2016-05-17T16:42:41.972Z,150
2016-05-17T16:43:41.959Z,155
2016-05-17T16:44:41.947Z,165
2016-05-17T16:45:41.777Z,170
2016-05-17T16:46:41.748Z,175
2016-05-17T16:47:41.892Z,175
2016-05-17T16:48:41.864Z,160
2016-05-17T16:49:41.866Z,150
2016-05-17T16:50:41.680Z,135
2016-05-17T16:51:41.668Z,120
2016-05-17T16:52:41.624Z,120
2016-05-17T16:53:41.799Z,115
2016-05-17T16:54:41.786Z,115
2016-05-17T16:55:41.757Z,110
2016-05-17T16:56:41.432Z,110
2016-05-17T16:57:41.716Z,115
2016-05-17T16:58:41.703Z,120
2016-05-17T16:59:41.690Z,120
2016-05-17T17:00:41.660Z,120
2016-05-17T17:01:41.648Z,120
2016-05-17T17:02:41.635Z,125
2016-05-17T17:03:41.607Z,125
2016-05-17T17:04:41.437Z,135
2016-05-17T17:05:41.409Z,130
2016-05-17T17:06:41.396Z,130
2016-05-17T17:07:41.555Z,130
2016-05-17T17:08:41.527Z,140
2016-05-17T17:09:41.341Z,135
2016-05-17T17:10:41.484Z,130
2016-05-17T17:11:41.300Z,135
2016-05-17T17:12:41.287Z,135
2016-05-17T17:13:41.275Z,140
2016-05-17T17:14:41.246Z,135
2016-05-17T17:15:41.389Z,135
2016-05-17T17:16:41.204Z,130
2016-05-17T17:17:41.364Z,120
2016-05-17T17:18:41.335Z,110
2016-05-17T17:19:41.322Z,100
2016-05-17T17:20:40.996Z,95
2016-05-17T17:21:41.124Z,90
2016-05-17T17:22:41.283Z,90
2016-05-17T17:23:41.098Z,95
2016-05-17T17:24:41.069Z,105
2016-05-17T17:25:41.213Z,110
2016-05-17T17:26:41.169Z,105
2016-05-17T17:27:41.172Z,100
2016-05-17T17:28:41.002Z,100
2016-05-17T17:29:41.130Z,95
2016-05-17T17:30:40.945Z,90
2016-05-17T17:31:41.088Z,90
2016-05-17T17:32:41.091Z,95
2016-05-17T17:33:41.079Z,95
2016-05-17T17:34:41.049Z,100
2016-05-17T17:35:40.865Z,105
2016-05-17T17:36:41.008Z,110
2016-05-17T17:37:41.010Z,110
2016-05-17T17:38:41.013Z,115
2016-05-17T17:39:40.953Z,115
2016-05-17T17:40:40.784Z,115
2016-05-17T17:41:40.896Z,115
2016-05-17T17:42:40.587Z,115
2016-05-17T17:43:40.886Z,110
2016-05-17T17:44:40.717Z,105
2016-05-17T17:45:40.844Z,100
2016-05-17T17:46:40.816Z,95
2016-05-17T17:47:40.834Z,85
2016-05-17T17:48:40.634Z,80
2016-05-17T17:49:40.762Z,80
2016-05-17T17:50:40.749Z,75
2016-05-17T17:51:40.595Z,75
2016-05-17T17:52:40.707Z,75
2016-05-17T17:53:40.710Z,80
2016-05-17T17:54:40.666Z,80
2016-05-17T17:55:40.652Z,80
2016-05-17T17:56:40.484Z,80
2016-05-17T17:57:40.658Z,80
2016-05-17T17:58:40.613Z,80
2016-05-17T17:59:40.586Z,80
2016-05-17T18:00:40.572Z,80
2016-05-17T18:01:40.403Z,80
2016-05-17T18:02:40.235Z,75
2016-05-17T18:03:40.502Z,75
2016-05-17T18:04:40.490Z,70
2016-05-17T18:05:40.321Z,70
2016-05-17T18:06:40.307Z,70
2016-05-17T18:07:40.451Z,70
2016-05-17T18:08:40.438Z,65
2016-05-17T18:09:40.409Z,65
2016-05-17T18:10:40.224Z,60
2016-05-17T18:11:40.351Z,60
2016-05-17T18:12:40.355Z,65
2016-05-17T18:13:40.326Z,60
2016-05-17T18:14:40.141Z,60
2016-05-17T18:15:40.176Z,60
2016-05-17T18:16:40.272Z,55
2016-05-17T18:17:40.242Z,55
2016-05-17T18:18:40.231Z,55
2016-05-17T18:19:40.061Z,55
2016-05-17T18:20:40.205Z,55
2016-05-17T18:21:40.175Z,50
2016-05-17T18:22:40.694Z,50
2016-05-17T18:23:39.978Z,50
2016-05-17T18:24:39.980Z,50
2016-05-17T18:25:40.093Z,45
2016-05-17T18:26:39.908Z,45
2016-05-17T18:27:39.895Z,45
2016-05-17T18:28:40.055Z,45
2016-05-17T18:29:39.869Z,45
2016-05-17T18:30:39.841Z,40
2016-05-17T18:31:39.828Z,40
2016-05-17T18:32:39.955Z,40
2016-05-17T18:33:39.801Z,40
2016-05-17T18:34:39.930Z,40
2016-05-17T18:35:39.901Z,35
2016-05-17T18:36:39.888Z,35
2016-05-17T18:37:39.984Z,35
2016-05-17T18:38:39.878Z,35
2016-05-17T18:39:39.834Z,35
2016-05-17T18:40:39.821Z,35
2016-05-17T18:41:39.777Z,30
2016-05-17T18:42:39.623Z,30
2016-05-17T18:43:39.751Z,30
2016-05-17T18:44:39.722Z,30
2016-05-17T18:45:39.709Z,30
2016-05-17T18:46:39.540Z,30
2016-05-17T18:47:39.668Z,25
2016-05-17T18:48:39.639Z,25
2016-05-17T18:49:40.282Z,25
2016-05-17T18:50:39.316Z,25
2016-05-17T18:51:39.584Z,25
2016-05-17T18:52:39.275Z,20
2016-05-17T18:53:39.403Z,20
2016-05-17T18:54:58.033Z,20
2016-05-17T18:55:39.517Z,20
2016-05-17T18:56:39.488Z,20
2016-05-17T18:57:46.991Z,20
2016-05-17T18:58:44.807Z,15
2016-05-17T18:59:39.435Z,15
2016-05-17T19:00:39.250Z,15
2016-05-17T19:01:39.394Z,15
2016-05-17T19:02:39.224Z,15
2016-05-17T19:03:39.351Z,15
2016-05-17T19:04:39.182Z,15
2016-05-17T19:05:39.169Z,10
2016-05-17T19:06:39.296Z,10
2016-05-17T19:07:39.143Z,10
2016-05-17T19:08:39.255Z,10
2016-05-17T19:09:39.243Z,10
2016-05-17T19:10:39.074Z,10
2016-05-17T19:11:39.060Z,10
2016-05-17T19:12:39.188Z,5
2016-05-17T19:13:39.143Z,5
2016-05-17T19:14:38.975Z,5
2016-05-17T19:15:38.806Z,5
2016-05-17T19:16:39.090Z,5
2016-05-17T19:17:38.936Z,5
2016-05-17T19:18:38.891Z,5
2016-05-17T19:19:38.878Z,5
2016-05-17T19:20:39.006Z,5
2016-05-17T19:21:38.994Z,5
2016-05-17T19:22:38.839Z,0
2016-05-17T19:23:38.984Z,0
2016-05-17T19:24:38.939Z,0
2016-05-17T19:25:38.911Z,0
2016-05-17T19:26:38.882Z,0
2016-05-17T19:27:38.885Z,0
2016-05-17T19:28:38.841Z,0
2016-05-17T19:29:38.827Z,0
2016-05-17T19:30:38.799Z,0
2016-05-17T19:31:38.646Z,0
2016-05-17T19:32:38.789Z,0
2016-05-17T19:33:38.744Z,0
2016-05-17T19:34:38.732Z,0
2016-05-17T19:35:38.702Z,0
2016-05-17T19:36:38.674Z,0
2016-05-17T19:37:38.662Z,0
2016-05-17T19:38:38.633Z,0
2016-05-17T19:39:38.464Z,0
2016-05-17T19:40:38.607Z,0
2016-05-17T19:41:38.594Z,0
2016-05-17T19:42:38.550Z,0
2016-05-17T19:43:38.537Z,0
2016-05-17T19:44:38.524Z,0
2016-05-17T19:45:38.496Z,0
2016-05-17T19:46:38.467Z,0
2016-05-17T19:47:38.142Z,0
2016-05-17T19:48:38.441Z,0
2016-05-17T19:49:38.428Z,0
2016-05-17T19:50:38.384Z,0
2016-05-17T19:51:38.356Z,0
2016-05-17T19:52:38.061Z,0
2016-05-17T19:53:38.783Z,0
2016-05-17T19:54:38.176Z,0
2016-05-17T19:55:38.147Z,0
2016-05-17T19:56:38.275Z,0
2016-05-17T19:57:37.981Z,0
2016-05-17T19:58:38.233Z,0
2016-05-17T19:59:38.237Z,0
2016-05-17T20:00:38.208Z,0
2016-05-17T20:01:38.163Z,0
2016-05-17T20:02:38.151Z,0
2016-05-17T20:03:38.122Z,0
2016-05-17T20:04:38.093Z,0
2016-05-17T20:05:37.924Z,0
2016-05-17T20:06:38.052Z,0
2016-05-17T20:07:38.274Z,0
2016-05-17T20:08:37.885Z,0
2016-05-17T20:09:37.873Z,0
2016-05-17T20:10:38.016Z,0
2016-05-17T20:11:37.941Z,0
2016-05-17T20:12:37.943Z,0
2016-05-17T20:13:37.759Z,0
2016-05-17T20:14:37.918Z,0
2016-05-17T20:15:37.873Z,0
2016-05-17T20:16:37.703Z,0
2016-05-17T20:17:37.832Z,0
2016-05-17T20:18:37.803Z,0
2016-05-17T20:19:37.821Z,0
2016-05-17T20:20:37.777Z,0
2016-05-17T20:21:37.748Z,0
2016-05-17T20:22:38.611Z,0
2016-05-17T20:23:37.723Z,0
2016-05-17T20:24:38.945Z,0
2016-05-17T20:25:37.526Z,0
2016-05-17T20:26:37.512Z,0
2016-05-17T20:27:37.639Z,0
2016-05-17T20:28:37.595Z,0
2016-05-17T20:29:37.442Z,0
2016-05-17T20:30:37.570Z,0
2016-05-17T20:31:37.385Z,0
2016-05-17T20:32:37.372Z,0
2016-05-17T20:33:37.358Z,0
2016-05-17T20:34:37.486Z,0
2016-05-17T20:35:37.318Z,0
2016-05-17T20:36:37.289Z,0
2016-05-17T20:37:37.791Z,0
2016-05-17T20:38:37.247Z,0
2016-05-17T20:39:37.375Z,0
2016-05-17T20:40:37.346Z,0
2016-05-17T20:41:37.318Z,0
2016-05-17T20:42:37.321Z,0
2016-05-17T20:43:37.292Z,0
2016-05-17T20:44:37.185Z,0
2016-05-17T20:45:37.251Z,0
2016-05-17T20:46:37.238Z,0
2016-05-17T20:47:37.225Z,0
2016-05-17T20:48:37.181Z,0
2016-05-17T20:49:37.167Z,0
2016-05-17T20:50:37.154Z,0
2016-05-17T20:51:36.954Z,0
2016-05-17T20:52:37.410Z,0
2016-05-17T20:53:36.929Z,0
2016-05-17T20:54:37.057Z,0
2016-05-17T20:55:36.871Z,0
2016-05-17T20:56:37.030Z,0
2016-05-17T20:57:37.002Z,0
2016-05-17T20:58:36.973Z,0
2016-05-17T20:59:36.648Z,0
2016-05-17T21:00:36.775Z,0
2016-05-17T21:01:36.903Z,0
2016-05-17T21:02:36.891Z,0
2016-05-17T21:03:36.721Z,0
2016-05-17T21:04:36.849Z,0
2016-05-17T21:05:36.508Z,0
2016-05-17T21:06:36.808Z,0
2016-05-17T21:07:36.529Z,0
2016-05-17T21:08:36.625Z,0
2016-05-17T21:09:36.424Z,0
2016-05-17T21:10:36.725Z,0
2016-05-17T21:11:36.710Z,0
2016-05-17T21:12:36.526Z,0
2016-05-17T21:13:36.686Z,0
2016-05-17T21:14:36.469Z,0
2016-05-17T21:15:36.629Z,0
2016-05-17T21:16:36.429Z,0
2016-05-17T21:17:36.571Z,0
2016-05-17T21:18:36.574Z,0
2016-05-17T21:19:36.373Z,0
2016-05-17T21:20:36.345Z,0
2016-05-17T21:21:36.488Z,0
2016-05-17T21:22:36.678Z,0
2016-05-17T21:23:36.431Z,0
2016-05-17T21:24:36.417Z,0
2016-05-17T21:25:36.249Z,0
2016-05-17T21:26:36.220Z,0
2016-05-17T21:27:36.348Z,0
2016-05-17T21:28:36.351Z,0
2016-05-17T21:29:36.306Z,0
2016-05-17T21:30:36.278Z,0
2016-05-17T21:31:36.124Z,0
2016-05-17T21:32:36.253Z,0
2016-05-17T21:33:36.067Z,0
2016-05-17T21:34:36.195Z,0
2016-05-17T21:35:36.025Z,0
2016-05-17T21:36:36.013Z,0
2016-05-17T21:37:35.780Z,0
2016-05-17T21:38:36.128Z,0
2016-05-17T21:39:35.927Z,0
2016-05-17T21:40:36.071Z,0
2016-05-17T21:41:38.291Z,0
2016-05-17T21:42:36.029Z,0
2016-05-17T21:43:36.001Z,0
2016-05-17T21:44:35.971Z,0
2016-05-17T21:45:35.974Z,0
2016-05-17T21:46:35.821Z,0
2016-05-17T21:47:35.918Z,0
2016-05-17T21:48:35.998Z,0
2016-05-17T21:49:35.860Z,0
2016-05-17T21:50:35.847Z,0
2016-05-17T21:51:35.835Z,0
2016-05-17T21:52:35.696Z,0
2016-05-17T21:53:35.777Z,0
2016-05-17T21:54:35.749Z,0
2016-05-17T21:55:35.783Z,0
2016-05-17T21:56:35.410Z,0
2016-05-17T21:57:35.522Z,0
2016-05-17T21:58:35.682Z,0
2016-05-17T21:59:35.637Z,0
2016-05-17T22:00:35.639Z,0
2016-05-17T22:01:35.456Z,0
2016-05-17T22:02:35.583Z,0
2016-05-17T22:03:35.555Z,0
2016-05-17T22:04:35.557Z,0
2016-05-17T22:05:35.514Z,0
2016-05-17T22:06:35.484Z,0
2016-05-17T22:07:35.800Z,0
2016-05-17T22:08:35.302Z,0
2016-05-17T22:09:35.117Z,0
2016-05-17T22:10:35.261Z,0
2016-05-17T22:11:35.388Z,0
2016-05-17T22:12:35.360Z,0
2016-05-17T22:13:35.174Z,0
2016-05-17T22:14:36.959Z,0
2016-05-17T22:15:35.305Z,0
2016-05-17T22:16:35.293Z,0
2016-05-17T22:17:35.279Z,0
2016-05-17T22:18:34.923Z,0
2016-05-17T22:19:35.207Z,0
2016-05-17T22:20:35.193Z,0
2016-05-17T22:21:35.149Z,0
2016-05-17T22:22:34.996Z,0
2016-05-17T22:23:35.123Z,0
2016-05-17T22:24:35.096Z,0
2016-05-17T22:25:34.926Z,0
2016-05-17T22:26:35.054Z,0
2016-05-17T22:27:35.026Z,0
2016-05-17T22:28:35.012Z,0
2016-05-17T22:29:34.984Z,0
2016-05-17T22:30:34.956Z,0
2016-05-17T22:31:34.770Z,0
2016-05-17T22:32:34.758Z,0
2016-05-17T22:33:34.901Z,0
2016-05-17T22:34:34.731Z,0
2016-05-17T22:35:34.844Z,0
2016-05-17T22:36:34.831Z,0
2016-05-17T22:37:34.708Z,0
2016-05-17T22:38:46.211Z,0
2016-05-17T22:39:34.605Z,0
2016-05-17T22:40:34.732Z,0
2016-05-17T22:41:34.563Z,0
2016-05-17T22:42:34.690Z,0
2016-05-17T22:43:34.506Z,0
2016-05-17T22:44:34.493Z,0
2016-05-17T22:45:34.479Z,0
2016-05-17T22:46:34.608Z,0
2016-05-17T22:47:34.423Z,0
2016-05-17T22:48:34.551Z,0
2016-05-17T22:49:34.381Z,0
2016-05-17T22:50:34.197Z,0
2016-05-17T22:51:34.340Z,0
2016-05-17T22:52:34.155Z,0
2016-05-17T22:53:34.439Z,0
2016-05-17T22:54:34.441Z,0
2016-05-17T22:55:34.413Z,0
2016-05-17T22:56:34.384Z,0
2016-05-17T22:57:34.356Z,0
2016-05-17T22:58:34.170Z,0
2016-05-17T22:59:34.315Z,0
2016-05-17T23:00:34.145Z,0
2016-05-17T23:01:34.116Z,0
2016-05-17T23:02:34.088Z,0
2016-05-17T23:03:34.060Z,0
2016-05-17T23:04:34.203Z,0
2016-05-17T23:05:34.017Z,0
2016-05-17T23:06:34.161Z,0
2016-05-17T23:07:34.147Z,0
2016-05-17T23:08:33.980Z,0
2016-05-17T23:09:33.935Z,0
2016-05-17T23:10:34.094Z,0
2016-05-17T23:11:34.034Z,0
2016-05-17T23:12:34.006Z,0
2016-05-17T23:13:33.993Z,0
2016-05-17T23:14:33.838Z,0
2016-05-17T23:15:33.952Z,0
2016-05-17T23:16:33.766Z,0
2016-05-17T23:17:33.910Z,0
2016-05-17T23:18:33.724Z,0
2016-05-17T23:19:33.868Z,0
2016-05-17T23:20:33.824Z,0
2016-05-17T23:21:33.811Z,0
2016-05-17T23:22:33.530Z,0
2016-05-17T23:23:33.701Z,0
2016-05-17T23:24:33.734Z,0
2016-05-17T23:25:33.577Z,0
2016-05-17T23:26:33.764Z,0
2016-05-17T23:27:33.908Z,0
2016-05-17T23:28:33.754Z,0
2016-05-17T23:29:33.898Z,0
2016-05-17T23:30:33.760Z,0
2016-05-17T23:31:33.887Z,0
2016-05-17T23:32:33.865Z,0
2016-05-17T23:33:33.545Z,0
2016-05-17T23:34:33.834Z,0
2016-05-17T23:35:33.812Z,0
2016-05-17T23:36:33.804Z,0
2016-05-17T23:37:34.497Z,0
2016-05-17T23:38:33.611Z,0
2016-05-17T23:39:33.741Z,0
2016-05-17T23:40:33.574Z,0
2016-05-17T23:41:33.704Z,0
2016-05-17T23:42:33.662Z,0
2016-05-17T23:43:33.508Z,0
2016-05-17T23:44:33.637Z,0
2016-05-17T23:45:33.625Z,0
2016-05-17T23:46:33.426Z,0
2016-05-17T23:47:33.256Z,0
2016-05-17T23:48:33.555Z,0
2016-05-17T23:49:33.512Z,0
2016-05-17T23:50:33.343Z,0
2016-05-17T23:51:33.470Z,0
2016-05-17T23:52:33.503Z,0
2016-05-17T23:53:33.429Z,0
2016-05-17T23:54:33.243Z,0
2016-05-17T23:55:33.386Z,0
2016-05-17T23:56:33.217Z,0
2016-05-17T23:57:33.345Z,0
2016-05-17T23:58:33.176Z,0
2016-05-17T23:59:33.147Z,0
